Tazewell, Tennessee
Current Conditions -  °F | °C
As of 10:15 AM on Wednesday 22 Oct 2014 (Local Time) from K1A6 Reporting Station
Overcast Overcast  
Wind Chill: 47°   Ceiling: 3800
Heat Index: 48°   Visibility: 10mi
Dew Point: 38°   Wind: 5mph
Humidity: 68%   Direction: 320°NW
Pressure: 30.24"   Gusts: NA
Location:  36.45°N, 83.57°W
Report Text: K1A6 221415Z AUTO 32004KT 10SM SCT026 OVC038 09/04 A3024 RMK AO2 T00910035
Loading
Personal Weather Stations






























Interactive Weather Map
Tropical Storm Tracking
New forecast layout! Learn more

10-Day Weather Forecast

Advertisements
Track Severe Weather on mobile